sensor_id;sensor_type;location;lat;lon;timestamp;P1;durP1;ratioP1;P2;durP2;ratioP2
70303;SDS011;57712;48.752;11.348;2023-06-04T00:01:09;5.50;;;1.48;;
70303;SDS011;57712;48.752;11.348;2023-06-04T00:03:42;3.42;;;0.90;;
70303;SDS011;57712;48.752;11.348;2023-06-04T00:06:08;5.03;;;1.20;;
70303;SDS011;57712;48.752;11.348;2023-06-04T00:08:35;5.13;;;1.13;;
70303;SDS011;57712;48.752;11.348;2023-06-04T00:11:02;5.80;;;1.20;;
70303;SDS011;57712;48.752;11.348;2023-06-04T00:13:28;4.38;;;1.33;;
70303;SDS011;57712;48.752;11.348;2023-06-04T00:15:55;4.57;;;1.15;;
70303;SDS011;57712;48.752;11.348;2023-06-04T00:18:22;4.30;;;1.20;;
70303;SDS011;57712;48.752;11.348;2023-06-04T00:20:48;4.70;;;1.30;;
70303;SDS011;57712;48.752;11.348;2023-06-04T00:23:15;5.68;;;1.20;;
70303;SDS011;57712;48.752;11.348;2023-06-04T00:25:41;3.58;;;0.85;;
70303;SDS011;57712;48.752;11.348;2023-06-04T00:28:08;4.28;;;1.05;;
70303;SDS011;57712;48.752;11.348;2023-06-04T00:30:35;4.07;;;1.35;;
70303;SDS011;57712;48.752;11.348;2023-06-04T00:33:02;4.40;;;1.10;;
70303;SDS011;57712;48.752;11.348;2023-06-04T00:35:28;4.85;;;1.20;;
70303;SDS011;57712;48.752;11.348;2023-06-04T00:37:55;5.60;;;1.50;;
70303;SDS011;57712;48.752;11.348;2023-06-04T00:40:22;4.90;;;1.20;;
70303;SDS011;57712;48.752;11.348;2023-06-04T00:42:48;4.28;;;1.08;;
70303;SDS011;57712;48.752;11.348;2023-06-04T00:45:15;4.83;;;1.00;;
70303;SDS011;57712;48.752;11.348;2023-06-04T00:47:44;3.92;;;1.17;;
70303;SDS011;57712;48.752;11.348;2023-06-04T00:50:11;3.85;;;1.08;;
70303;SDS011;57712;48.752;11.348;2023-06-04T00:52:39;4.47;;;1.40;;
70303;SDS011;57712;48.752;11.348;2023-06-04T00:55:06;5.03;;;1.30;;
70303;SDS011;57712;48.752;11.348;2023-06-04T00:57:34;5.93;;;1.13;;
70303;SDS011;57712;48.752;11.348;2023-06-04T01:00:00;4.68;;;1.27;;
70303;SDS011;57712;48.752;11.348;2023-06-04T01:02:27;9.80;;;2.17;;
70303;SDS011;57712;48.752;11.348;2023-06-04T01:05:17;9.10;;;1.67;;
70303;SDS011;57712;48.752;11.348;2023-06-04T01:07:46;10.25;;;2.15;;
70303;SDS011;57712;48.752;11.348;2023-06-04T01:10:14;6.90;;;1.83;;
70303;SDS011;57712;48.752;11.348;2023-06-04T01:12:42;9.35;;;1.83;;
70303;SDS011;57712;48.752;11.348;2023-06-04T01:15:09;7.60;;;1.55;;
70303;SDS011;57712;48.752;11.348;2023-06-04T01:17:39;11.43;;;1.90;;
70303;SDS011;57712;48.752;11.348;2023-06-04T01:20:16;6.38;;;1.52;;
70303;SDS011;57712;48.752;11.348;2023-06-04T01:25:34;5.35;;;1.63;;
70303;SDS011;57712;48.752;11.348;2023-06-04T01:28:04;4.05;;;1.08;;
70303;SDS011;57712;48.752;11.348;2023-06-04T01:30:33;4.28;;;1.25;;
70303;SDS011;57712;48.752;11.348;2023-06-04T01:33:01;5.15;;;1.00;;
70303;SDS011;57712;48.752;11.348;2023-06-04T01:35:29;4.60;;;1.63;;
70303;SDS011;57712;48.752;11.348;2023-06-04T01:37:58;4.15;;;1.20;;
70303;SDS011;57712;48.752;11.348;2023-06-04T01:40:25;4.32;;;1.25;;
70303;SDS011;57712;48.752;11.348;2023-06-04T01:42:53;4.85;;;1.52;;
70303;SDS011;57712;48.752;11.348;2023-06-04T01:45:20;6.13;;;1.48;;
70303;SDS011;57712;48.752;11.348;2023-06-04T01:47:47;4.07;;;0.97;;
70303;SDS011;57712;48.752;11.348;2023-06-04T01:50:14;4.50;;;1.25;;
70303;SDS011;57712;48.752;11.348;2023-06-04T01:52:41;4.10;;;0.80;;
70303;SDS011;57712;48.752;11.348;2023-06-04T01:55:09;5.18;;;1.20;;
70303;SDS011;57712;48.752;11.348;2023-06-04T01:57:41;5.03;;;1.13;;
70303;SDS011;57712;48.752;11.348;2023-06-04T02:00:10;4.37;;;1.17;;
70303;SDS011;57712;48.752;11.348;2023-06-04T02:02:38;5.70;;;0.88;;
70303;SDS011;57712;48.752;11.348;2023-06-04T02:05:09;4.47;;;1.60;;
70303;SDS011;57712;48.752;11.348;2023-06-04T02:07:40;3.78;;;1.00;;
70303;SDS011;57712;48.752;11.348;2023-06-04T02:10:08;3.78;;;1.33;;
70303;SDS011;57712;48.752;11.348;2023-06-04T02:12:38;5.30;;;1.00;;
70303;SDS011;57712;48.752;11.348;2023-06-04T02:15:19;4.13;;;1.27;;
70303;SDS011;57712;48.752;11.348;2023-06-04T02:17:45;3.65;;;1.10;;
70303;SDS011;57712;48.752;11.348;2023-06-04T02:20:14;4.25;;;1.27;;
70303;SDS011;57712;48.752;11.348;2023-06-04T02:22:40;4.72;;;1.23;;
70303;SDS011;57712;48.752;11.348;2023-06-04T02:25:07;4.27;;;0.97;;
70303;SDS011;57712;48.752;11.348;2023-06-04T02:27:35;5.60;;;1.10;;
70303;SDS011;57712;48.752;11.348;2023-06-04T02:30:02;5.88;;;1.50;;
70303;SDS011;57712;48.752;11.348;2023-06-04T02:32:30;5.07;;;1.20;;
70303;SDS011;57712;48.752;11.348;2023-06-04T02:34:56;4.65;;;1.23;;
70303;SDS011;57712;48.752;11.348;2023-06-04T02:37:23;4.90;;;1.00;;
70303;SDS011;57712;48.752;11.348;2023-06-04T02:39:49;4.65;;;1.15;;
70303;SDS011;57712;48.752;11.348;2023-06-04T02:42:16;5.22;;;1.40;;
70303;SDS011;57712;48.752;11.348;2023-06-04T02:44:43;4.55;;;0.90;;
70303;SDS011;57712;48.752;11.348;2023-06-04T02:47:09;4.88;;;1.23;;
70303;SDS011;57712;48.752;11.348;2023-06-04T02:49:41;6.10;;;1.20;;
70303;SDS011;57712;48.752;11.348;2023-06-04T02:52:08;4.57;;;1.13;;
70303;SDS011;57712;48.752;11.348;2023-06-04T02:54:35;5.65;;;0.98;;
70303;SDS011;57712;48.752;11.348;2023-06-04T02:57:01;5.28;;;1.30;;
70303;SDS011;57712;48.752;11.348;2023-06-04T02:59:28;4.65;;;1.30;;
70303;SDS011;57712;48.752;11.348;2023-06-04T03:01:54;4.30;;;1.00;;
70303;SDS011;57712;48.752;11.348;2023-06-04T03:04:21;5.57;;;1.30;;
70303;SDS011;57712;48.752;11.348;2023-06-04T03:06:48;4.20;;;1.00;;
70303;SDS011;57712;48.752;11.348;2023-06-04T03:09:23;4.00;;;1.08;;
70303;SDS011;57712;48.752;11.348;2023-06-04T03:11:50;4.47;;;0.73;;
70303;SDS011;57712;48.752;11.348;2023-06-04T03:14:20;4.73;;;1.13;;
70303;SDS011;57712;48.752;11.348;2023-06-04T03:16:47;5.15;;;1.00;;
70303;SDS011;57712;48.752;11.348;2023-06-04T03:19:15;5.50;;;1.20;;
70303;SDS011;57712;48.752;11.348;2023-06-04T03:21:43;4.57;;;0.95;;
70303;SDS011;57712;48.752;11.348;2023-06-04T03:24:11;5.43;;;1.30;;
70303;SDS011;57712;48.752;11.348;2023-06-04T03:26:38;6.50;;;1.40;;
70303;SDS011;57712;48.752;11.348;2023-06-04T03:29:04;6.47;;;1.15;;
70303;SDS011;57712;48.752;11.348;2023-06-04T03:31:31;4.82;;;1.08;;
70303;SDS011;57712;48.752;11.348;2023-06-04T03:33:58;5.15;;;1.25;;
70303;SDS011;57712;48.752;11.348;2023-06-04T03:36:25;5.13;;;1.17;;
70303;SDS011;57712;48.752;11.348;2023-06-04T03:38:58;5.40;;;1.10;;
70303;SDS011;57712;48.752;11.348;2023-06-04T03:41:24;4.18;;;1.08;;
70303;SDS011;57712;48.752;11.348;2023-06-04T03:43:52;5.82;;;1.30;;
70303;SDS011;57712;48.752;11.348;2023-06-04T03:46:19;4.20;;;1.08;;
70303;SDS011;57712;48.752;11.348;2023-06-04T03:48:45;3.58;;;0.88;;
70303;SDS011;57712;48.752;11.348;2023-06-04T03:51:12;6.33;;;1.43;;
70303;SDS011;57712;48.752;11.348;2023-06-04T03:53:39;4.50;;;1.05;;
70303;SDS011;57712;48.752;11.348;2023-06-04T03:56:05;4.57;;;1.10;;
70303;SDS011;57712;48.752;11.348;2023-06-04T03:58:32;5.05;;;1.00;;
70303;SDS011;57712;48.752;11.348;2023-06-04T04:01:01;6.00;;;1.15;;
70303;SDS011;57712;48.752;11.348;2023-06-04T04:03:27;4.20;;;0.90;;
70303;SDS011;57712;48.752;11.348;2023-06-04T04:05:57;5.15;;;1.20;;
70303;SDS011;57712;48.752;11.348;2023-06-04T04:08:24;4.47;;;1.38;;
70303;SDS011;57712;48.752;11.348;2023-06-04T04:10:52;4.68;;;1.40;;
70303;SDS011;57712;48.752;11.348;2023-06-04T04:13:18;4.45;;;1.50;;
70303;SDS011;57712;48.752;11.348;2023-06-04T04:15:45;5.43;;;1.63;;
70303;SDS011;57712;48.752;11.348;2023-06-04T04:18:11;4.90;;;1.65;;
70303;SDS011;57712;48.752;11.348;2023-06-04T04:20:38;5.40;;;1.83;;
70303;SDS011;57712;48.752;11.348;2023-06-04T04:23:05;5.95;;;1.65;;
70303;SDS011;57712;48.752;11.348;2023-06-04T04:25:32;7.22;;;1.20;;
70303;SDS011;57712;48.752;11.348;2023-06-04T04:27:59;5.27;;;1.10;;
70303;SDS011;57712;48.752;11.348;2023-06-04T04:30:28;4.95;;;1.10;;
70303;SDS011;57712;48.752;11.348;2023-06-04T04:32:55;4.43;;;1.20;;
70303;SDS011;57712;48.752;11.348;2023-06-04T04:35:22;3.70;;;1.20;;
70303;SDS011;57712;48.752;11.348;2023-06-04T04:37:50;4.28;;;1.80;;
70303;SDS011;57712;48.752;11.348;2023-06-04T04:40:16;5.47;;;1.27;;
70303;SDS011;57712;48.752;11.348;2023-06-04T04:42:43;5.22;;;1.77;;
70303;SDS011;57712;48.752;11.348;2023-06-04T04:45:10;5.22;;;1.70;;
70303;SDS011;57712;48.752;11.348;2023-06-04T04:47:37;4.50;;;1.17;;
70303;SDS011;57712;48.752;11.348;2023-06-04T04:50:04;5.28;;;1.63;;
70303;SDS011;57712;48.752;11.348;2023-06-04T04:52:31;4.37;;;1.37;;
70303;SDS011;57712;48.752;11.348;2023-06-04T04:54:58;7.50;;;1.52;;
70303;SDS011;57712;48.752;11.348;2023-06-04T04:57:24;5.05;;;1.70;;
70303;SDS011;57712;48.752;11.348;2023-06-04T04:59:51;5.15;;;1.58;;
70303;SDS011;57712;48.752;11.348;2023-06-04T05:02:18;5.68;;;2.03;;
70303;SDS011;57712;48.752;11.348;2023-06-04T05:04:45;7.60;;;3.80;;
70303;SDS011;57712;48.752;11.348;2023-06-04T05:07:11;7.97;;;3.90;;
70303;SDS011;57712;48.752;11.348;2023-06-04T05:09:38;6.32;;;2.65;;
70303;SDS011;57712;48.752;11.348;2023-06-04T05:12:04;5.20;;;1.83;;
70303;SDS011;57712;48.752;11.348;2023-06-04T05:14:31;4.13;;;1.38;;
70303;SDS011;57712;48.752;11.348;2023-06-04T05:16:59;5.00;;;1.70;;
70303;SDS011;57712;48.752;11.348;2023-06-04T05:19:25;4.95;;;1.27;;
70303;SDS011;57712;48.752;11.348;2023-06-04T05:21:52;5.07;;;1.80;;
70303;SDS011;57712;48.752;11.348;2023-06-04T05:24:18;4.93;;;1.60;;
70303;SDS011;57712;48.752;11.348;2023-06-04T05:26:46;5.47;;;1.80;;
70303;SDS011;57712;48.752;11.348;2023-06-04T05:29:14;4.43;;;1.10;;
70303;SDS011;57712;48.752;11.348;2023-06-04T05:31:41;4.63;;;1.20;;
70303;SDS011;57712;48.752;11.348;2023-06-04T05:34:08;4.78;;;1.50;;
70303;SDS011;57712;48.752;11.348;2023-06-04T05:36:35;5.50;;;1.30;;
70303;SDS011;57712;48.752;11.348;2023-06-04T05:39:02;5.10;;;1.90;;
70303;SDS011;57712;48.752;11.348;2023-06-04T05:41:29;5.97;;;1.70;;
70303;SDS011;57712;48.752;11.348;2023-06-04T05:43:56;6.57;;;1.63;;
70303;SDS011;57712;48.752;11.348;2023-06-04T05:46:22;4.32;;;1.63;;
70303;SDS011;57712;48.752;11.348;2023-06-04T05:48:49;5.50;;;1.42;;
70303;SDS011;57712;48.752;11.348;2023-06-04T05:51:17;5.32;;;2.03;;
70303;SDS011;57712;48.752;11.348;2023-06-04T05:53:44;4.67;;;1.70;;
70303;SDS011;57712;48.752;11.348;2023-06-04T05:56:11;5.57;;;1.45;;
70303;SDS011;57712;48.752;11.348;2023-06-04T05:58:37;5.25;;;1.52;;
70303;SDS011;57712;48.752;11.348;2023-06-04T06:01:04;5.05;;;1.30;;
70303;SDS011;57712;48.752;11.348;2023-06-04T06:03:31;4.78;;;1.65;;
70303;SDS011;57712;48.752;11.348;2023-06-04T06:05:58;5.80;;;1.43;;
70303;SDS011;57712;48.752;11.348;2023-06-04T06:08:26;4.65;;;1.30;;
70303;SDS011;57712;48.752;11.348;2023-06-04T06:10:53;4.55;;;1.85;;
70303;SDS011;57712;48.752;11.348;2023-06-04T06:13:20;4.63;;;1.92;;
70303;SDS011;57712;48.752;11.348;2023-06-04T06:15:46;5.90;;;1.80;;
70303;SDS011;57712;48.752;11.348;2023-06-04T06:18:16;6.60;;;1.47;;
70303;SDS011;57712;48.752;11.348;2023-06-04T06:20:42;5.50;;;2.10;;
70303;SDS011;57712;48.752;11.348;2023-06-04T06:23:09;6.70;;;2.35;;
70303;SDS011;57712;48.752;11.348;2023-06-04T06:25:36;5.15;;;2.25;;
70303;SDS011;57712;48.752;11.348;2023-06-04T06:28:02;6.05;;;2.25;;
70303;SDS011;57712;48.752;11.348;2023-06-04T06:30:29;5.20;;;2.03;;
70303;SDS011;57712;48.752;11.348;2023-06-04T06:32:56;5.55;;;1.77;;
70303;SDS011;57712;48.752;11.348;2023-06-04T06:35:22;8.98;;;2.17;;
70303;SDS011;57712;48.752;11.348;2023-06-04T06:37:49;6.03;;;1.88;;
70303;SDS011;57712;48.752;11.348;2023-06-04T06:40:16;5.80;;;2.17;;
70303;SDS011;57712;48.752;11.348;2023-06-04T06:42:47;5.47;;;1.70;;
70303;SDS011;57712;48.752;11.348;2023-06-04T06:45:15;4.80;;;1.65;;
70303;SDS011;57712;48.752;11.348;2023-06-04T06:47:43;5.72;;;1.60;;
70303;SDS011;57712;48.752;11.348;2023-06-04T06:50:09;4.65;;;1.40;;
70303;SDS011;57712;48.752;11.348;2023-06-04T06:52:37;5.25;;;1.95;;
70303;SDS011;57712;48.752;11.348;2023-06-04T06:55:04;6.57;;;1.70;;
70303;SDS011;57712;48.752;11.348;2023-06-04T06:57:32;4.70;;;1.40;;
70303;SDS011;57712;48.752;11.348;2023-06-04T06:59:59;7.10;;;1.85;;
70303;SDS011;57712;48.752;11.348;2023-06-04T07:02:26;5.22;;;1.85;;
70303;SDS011;57712;48.752;11.348;2023-06-04T07:04:53;4.25;;;1.50;;
70303;SDS011;57712;48.752;11.348;2023-06-04T07:07:20;5.93;;;1.57;;
70303;SDS011;57712;48.752;11.348;2023-06-04T07:09:46;5.07;;;1.70;;
70303;SDS011;57712;48.752;11.348;2023-06-04T07:12:13;5.80;;;1.88;;
70303;SDS011;57712;48.752;11.348;2023-06-04T07:14:39;4.60;;;1.98;;
70303;SDS011;57712;48.752;11.348;2023-06-04T07:17:06;4.95;;;1.52;;
70303;SDS011;57712;48.752;11.348;2023-06-04T07:19:33;4.80;;;1.77;;
70303;SDS011;57712;48.752;11.348;2023-06-04T07:22:00;5.38;;;1.60;;
70303;SDS011;57712;48.752;11.348;2023-06-04T07:24:27;4.95;;;1.73;;
70303;SDS011;57712;48.752;11.348;2023-06-04T07:26:53;4.60;;;1.48;;
70303;SDS011;57712;48.752;11.348;2023-06-04T07:29:20;5.53;;;1.95;;
70303;SDS011;57712;48.752;11.348;2023-06-04T07:31:46;5.73;;;1.67;;
70303;SDS011;57712;48.752;11.348;2023-06-04T07:34:14;6.80;;;1.80;;
70303;SDS011;57712;48.752;11.348;2023-06-04T07:36:41;4.80;;;2.00;;
70303;SDS011;57712;48.752;11.348;2023-06-04T07:39:07;6.30;;;1.80;;
70303;SDS011;57712;48.752;11.348;2023-06-04T07:41:34;5.05;;;1.83;;
70303;SDS011;57712;48.752;11.348;2023-06-04T07:44:01;4.50;;;1.90;;
70303;SDS011;57712;48.752;11.348;2023-06-04T07:46:27;5.35;;;1.42;;
70303;SDS011;57712;48.752;11.348;2023-06-04T07:48:54;7.07;;;2.03;;
70303;SDS011;57712;48.752;11.348;2023-06-04T07:51:21;6.82;;;1.50;;
70303;SDS011;57712;48.752;11.348;2023-06-04T07:53:49;5.55;;;2.15;;
70303;SDS011;57712;48.752;11.348;2023-06-04T07:56:16;4.87;;;1.90;;
70303;SDS011;57712;48.752;11.348;2023-06-04T07:58:43;6.70;;;1.92;;
70303;SDS011;57712;48.752;11.348;2023-06-04T08:01:10;5.70;;;2.28;;
70303;SDS011;57712;48.752;11.348;2023-06-04T08:03:36;5.60;;;2.20;;
70303;SDS011;57712;48.752;11.348;2023-06-04T08:06:04;6.05;;;2.22;;
70303;SDS011;57712;48.752;11.348;2023-06-04T08:08:30;7.17;;;2.07;;
70303;SDS011;57712;48.752;11.348;2023-06-04T08:10:59;5.65;;;2.20;;
70303;SDS011;57712;48.752;11.348;2023-06-04T08:13:26;5.88;;;2.42;;
70303;SDS011;57712;48.752;11.348;2023-06-04T08:15:52;5.75;;;2.08;;
70303;SDS011;57712;48.752;11.348;2023-06-04T08:18:19;5.15;;;2.20;;
70303;SDS011;57712;48.752;11.348;2023-06-04T08:20:46;6.53;;;2.13;;
70303;SDS011;57712;48.752;11.348;2023-06-04T08:23:12;4.75;;;1.98;;
70303;SDS011;57712;48.752;11.348;2023-06-04T08:25:39;5.85;;;2.33;;
70303;SDS011;57712;48.752;11.348;2023-06-04T08:28:06;5.57;;;2.08;;
70303;SDS011;57712;48.752;11.348;2023-06-04T08:30:33;5.10;;;2.13;;
70303;SDS011;57712;48.752;11.348;2023-06-04T08:33:02;5.60;;;1.70;;
70303;SDS011;57712;48.752;11.348;2023-06-04T08:35:29;6.30;;;2.05;;
70303;SDS011;57712;48.752;11.348;2023-06-04T08:37:55;5.55;;;2.22;;
70303;SDS011;57712;48.752;11.348;2023-06-04T08:40:22;6.15;;;2.50;;
70303;SDS011;57712;48.752;11.348;2023-06-04T08:42:49;6.88;;;2.00;;
70303;SDS011;57712;48.752;11.348;2023-06-04T08:45:17;5.30;;;1.90;;
70303;SDS011;57712;48.752;11.348;2023-06-04T08:47:48;6.10;;;2.05;;
70303;SDS011;57712;48.752;11.348;2023-06-04T08:50:20;5.60;;;2.35;;
70303;SDS011;57712;48.752;11.348;2023-06-04T08:52:52;5.03;;;1.60;;
70303;SDS011;57712;48.752;11.348;2023-06-04T08:55:23;4.90;;;1.90;;
70303;SDS011;57712;48.752;11.348;2023-06-04T08:57:50;6.37;;;2.23;;
70303;SDS011;57712;48.752;11.348;2023-06-04T09:00:20;4.60;;;2.08;;
70303;SDS011;57712;48.752;11.348;2023-06-04T09:02:47;5.35;;;2.22;;
70303;SDS011;57712;48.752;11.348;2023-06-04T09:05:23;5.28;;;1.92;;
70303;SDS011;57712;48.752;11.348;2023-06-04T09:07:53;5.40;;;2.00;;
70303;SDS011;57712;48.752;11.348;2023-06-04T09:10:22;6.17;;;1.77;;
70303;SDS011;57712;48.752;11.348;2023-06-04T09:12:52;6.88;;;2.30;;
70303;SDS011;57712;48.752;11.348;2023-06-04T09:15:20;5.55;;;2.33;;
70303;SDS011;57712;48.752;11.348;2023-06-04T09:17:47;5.32;;;2.15;;
70303;SDS011;57712;48.752;11.348;2023-06-04T09:20:20;7.22;;;1.80;;
70303;SDS011;57712;48.752;11.348;2023-06-04T09:22:48;4.97;;;2.10;;
70303;SDS011;57712;48.752;11.348;2023-06-04T09:25:27;4.55;;;1.73;;
70303;SDS011;57712;48.752;11.348;2023-06-04T09:27:54;6.93;;;2.28;;
70303;SDS011;57712;48.752;11.348;2023-06-04T09:30:22;5.75;;;2.22;;
70303;SDS011;57712;48.752;11.348;2023-06-04T09:32:49;6.03;;;1.85;;
70303;SDS011;57712;48.752;11.348;2023-06-04T09:35:17;5.43;;;2.30;;
70303;SDS011;57712;48.752;11.348;2023-06-04T09:37:55;5.47;;;2.63;;
70303;SDS011;57712;48.752;11.348;2023-06-04T09:40:23;9.30;;;2.83;;
70303;SDS011;57712;48.752;11.348;2023-06-04T09:42:50;5.00;;;2.40;;
70303;SDS011;57712;48.752;11.348;2023-06-04T09:45:28;6.70;;;2.03;;
70303;SDS011;57712;48.752;11.348;2023-06-04T09:47:57;5.10;;;2.03;;
70303;SDS011;57712;48.752;11.348;2023-06-04T09:50:33;6.70;;;2.45;;
70303;SDS011;57712;48.752;11.348;2023-06-04T09:53:13;5.20;;;2.28;;
70303;SDS011;57712;48.752;11.348;2023-06-04T09:55:58;5.28;;;2.13;;
70303;SDS011;57712;48.752;11.348;2023-06-04T09:58:27;6.63;;;2.63;;
70303;SDS011;57712;48.752;11.348;2023-06-04T10:00:55;4.87;;;1.83;;
70303;SDS011;57712;48.752;11.348;2023-06-04T10:03:46;7.22;;;2.05;;
70303;SDS011;57712;48.752;11.348;2023-06-04T10:06:13;7.15;;;2.38;;
70303;SDS011;57712;48.752;11.348;2023-06-04T10:08:42;5.93;;;2.05;;
70303;SDS011;57712;48.752;11.348;2023-06-04T10:11:09;5.35;;;2.30;;
70303;SDS011;57712;48.752;11.348;2023-06-04T10:13:44;6.40;;;2.33;;
70303;SDS011;57712;48.752;11.348;2023-06-04T10:16:16;6.78;;;2.42;;
70303;SDS011;57712;48.752;11.348;2023-06-04T10:18:59;4.93;;;2.28;;
70303;SDS011;57712;48.752;11.348;2023-06-04T10:21:26;5.38;;;2.40;;
70303;SDS011;57712;48.752;11.348;2023-06-04T10:23:54;6.95;;;2.65;;
70303;SDS011;57712;48.752;11.348;2023-06-04T10:26:21;7.00;;;2.30;;
70303;SDS011;57712;48.752;11.348;2023-06-04T10:28:48;5.93;;;2.13;;
70303;SDS011;57712;48.752;11.348;2023-06-04T10:31:15;7.22;;;2.67;;
70303;SDS011;57712;48.752;11.348;2023-06-04T10:33:42;6.47;;;2.38;;
70303;SDS011;57712;48.752;11.348;2023-06-04T10:36:19;5.75;;;2.25;;
70303;SDS011;57712;48.752;11.348;2023-06-04T10:38:47;5.20;;;2.23;;
70303;SDS011;57712;48.752;11.348;2023-06-04T10:41:17;7.55;;;2.40;;
70303;SDS011;57712;48.752;11.348;2023-06-04T10:43:45;5.85;;;2.58;;
70303;SDS011;57712;48.752;11.348;2023-06-04T10:46:19;5.35;;;2.50;;
70303;SDS011;57712;48.752;11.348;2023-06-04T10:48:50;4.85;;;2.28;;
70303;SDS011;57712;48.752;11.348;2023-06-04T10:51:31;8.57;;;2.70;;
70303;SDS011;57712;48.752;11.348;2023-06-04T10:53:59;6.05;;;2.63;;
70303;SDS011;57712;48.752;11.348;2023-06-04T10:56:31;5.82;;;2.42;;
70303;SDS011;57712;48.752;11.348;2023-06-04T10:58:59;6.65;;;2.50;;
70303;SDS011;57712;48.752;11.348;2023-06-04T11:01:26;5.15;;;2.30;;
70303;SDS011;57712;48.752;11.348;2023-06-04T11:03:58;4.90;;;2.33;;
70303;SDS011;57712;48.752;11.348;2023-06-04T11:06:25;5.90;;;2.45;;
70303;SDS011;57712;48.752;11.348;2023-06-04T11:09:03;5.50;;;3.13;;
70303;SDS011;57712;48.752;11.348;2023-06-04T11:11:31;6.13;;;3.00;;
70303;SDS011;57712;48.752;11.348;2023-06-04T11:14:08;5.10;;;2.75;;
70303;SDS011;57712;48.752;11.348;2023-06-04T11:16:35;7.10;;;2.40;;
70303;SDS011;57712;48.752;11.348;2023-06-04T11:19:02;6.18;;;2.28;;
70303;SDS011;57712;48.752;11.348;2023-06-04T11:21:29;5.10;;;2.60;;
70303;SDS011;57712;48.752;11.348;2023-06-04T11:23:59;5.38;;;3.28;;
70303;SDS011;57712;48.752;11.348;2023-06-04T11:26:33;5.03;;;2.40;;
70303;SDS011;57712;48.752;11.348;2023-06-04T11:29:06;5.70;;;3.03;;
70303;SDS011;57712;48.752;11.348;2023-06-04T11:31:41;5.63;;;2.47;;
70303;SDS011;57712;48.752;11.348;2023-06-04T11:34:24;6.03;;;3.10;;
70303;SDS011;57712;48.752;11.348;2023-06-04T11:36:55;6.05;;;2.80;;
70303;SDS011;57712;48.752;11.348;2023-06-04T11:39:22;6.50;;;2.95;;
70303;SDS011;57712;48.752;11.348;2023-06-04T11:41:50;5.43;;;2.80;;
70303;SDS011;57712;48.752;11.348;2023-06-04T11:44:20;5.97;;;2.90;;
70303;SDS011;57712;48.752;11.348;2023-06-04T11:46:47;5.38;;;3.00;;
70303;SDS011;57712;48.752;11.348;2023-06-04T11:49:18;6.65;;;2.80;;
70303;SDS011;57712;48.752;11.348;2023-06-04T11:51:49;6.95;;;2.92;;
70303;SDS011;57712;48.752;11.348;2023-06-04T11:54:17;6.83;;;2.50;;
70303;SDS011;57712;48.752;11.348;2023-06-04T11:56:45;5.90;;;2.58;;
70303;SDS011;57712;48.752;11.348;2023-06-04T11:59:15;6.85;;;2.47;;
70303;SDS011;57712;48.752;11.348;2023-06-04T12:01:43;5.18;;;2.10;;
70303;SDS011;57712;48.752;11.348;2023-06-04T12:04:15;6.70;;;3.13;;
70303;SDS011;57712;48.752;11.348;2023-06-04T12:06:55;4.53;;;2.23;;
70303;SDS011;57712;48.752;11.348;2023-06-04T12:09:24;5.97;;;3.08;;
70303;SDS011;57712;48.752;11.348;2023-06-04T12:11:58;6.10;;;2.63;;
70303;SDS011;57712;48.752;11.348;2023-06-04T12:14:29;5.30;;;2.85;;
70303;SDS011;57712;48.752;11.348;2023-06-04T12:19:33;6.57;;;2.97;;
70303;SDS011;57712;48.752;11.348;2023-06-04T12:22:10;5.82;;;2.90;;
70303;SDS011;57712;48.752;11.348;2023-06-04T12:24:47;6.38;;;3.42;;
70303;SDS011;57712;48.752;11.348;2023-06-04T12:27:15;6.80;;;3.33;;
70303;SDS011;57712;48.752;11.348;2023-06-04T12:29:42;6.80;;;3.20;;
70303;SDS011;57712;48.752;11.348;2023-06-04T12:32:09;6.73;;;3.00;;
70303;SDS011;57712;48.752;11.348;2023-06-04T12:34:39;6.72;;;3.50;;
70303;SDS011;57712;48.752;11.348;2023-06-04T12:37:07;6.50;;;3.28;;
70303;SDS011;57712;48.752;11.348;2023-06-04T12:39:37;5.88;;;3.08;;
70303;SDS011;57712;48.752;11.348;2023-06-04T12:42:07;6.35;;;2.92;;
70303;SDS011;57712;48.752;11.348;2023-06-04T12:44:40;6.20;;;2.90;;
70303;SDS011;57712;48.752;11.348;2023-06-04T12:47:07;6.97;;;2.80;;
70303;SDS011;57712;48.752;11.348;2023-06-04T12:49:34;5.80;;;3.03;;
70303;SDS011;57712;48.752;11.348;2023-06-04T12:52:01;5.45;;;2.75;;
70303;SDS011;57712;48.752;11.348;2023-06-04T12:54:29;5.75;;;2.75;;
70303;SDS011;57712;48.752;11.348;2023-06-04T12:56:56;6.27;;;3.33;;
70303;SDS011;57712;48.752;11.348;2023-06-04T12:59:24;10.90;;;5.65;;
70303;SDS011;57712;48.752;11.348;2023-06-04T13:01:52;7.18;;;3.53;;
70303;SDS011;57712;48.752;11.348;2023-06-04T13:04:19;5.55;;;2.63;;
70303;SDS011;57712;48.752;11.348;2023-06-04T13:06:46;6.28;;;2.95;;
70303;SDS011;57712;48.752;11.348;2023-06-04T13:09:13;7.57;;;3.07;;
70303;SDS011;57712;48.752;11.348;2023-06-04T13:11:43;6.05;;;3.10;;
70303;SDS011;57712;48.752;11.348;2023-06-04T13:14:10;6.32;;;3.00;;
70303;SDS011;57712;48.752;11.348;2023-06-04T13:16:37;6.72;;;3.00;;
70303;SDS011;57712;48.752;11.348;2023-06-04T13:19:05;5.80;;;3.65;;
70303;SDS011;57712;48.752;11.348;2023-06-04T13:21:33;5.57;;;3.13;;
70303;SDS011;57712;48.752;11.348;2023-06-04T13:24:01;6.57;;;3.22;;
70303;SDS011;57712;48.752;11.348;2023-06-04T13:26:28;6.43;;;2.83;;
70303;SDS011;57712;48.752;11.348;2023-06-04T13:28:54;5.55;;;2.78;;
70303;SDS011;57712;48.752;11.348;2023-06-04T13:31:21;5.43;;;2.30;;
70303;SDS011;57712;48.752;11.348;2023-06-04T13:33:48;6.23;;;2.43;;
70303;SDS011;57712;48.752;11.348;2023-06-04T13:36:14;5.72;;;2.42;;
70303;SDS011;57712;48.752;11.348;2023-06-04T13:38:41;5.30;;;2.53;;
70303;SDS011;57712;48.752;11.348;2023-06-04T13:41:08;6.45;;;2.47;;
70303;SDS011;57712;48.752;11.348;2023-06-04T13:43:35;6.97;;;2.80;;
70303;SDS011;57712;48.752;11.348;2023-06-04T13:46:03;5.23;;;2.17;;
70303;SDS011;57712;48.752;11.348;2023-06-04T13:48:30;6.15;;;2.20;;
70303;SDS011;57712;48.752;11.348;2023-06-04T13:50:57;6.80;;;3.00;;
70303;SDS011;57712;48.752;11.348;2023-06-04T13:53:23;7.18;;;3.05;;
70303;SDS011;57712;48.752;11.348;2023-06-04T13:55:50;5.57;;;2.60;;
70303;SDS011;57712;48.752;11.348;2023-06-04T13:58:24;5.40;;;2.80;;
70303;SDS011;57712;48.752;11.348;2023-06-04T14:00:51;5.88;;;2.33;;
70303;SDS011;57712;48.752;11.348;2023-06-04T14:03:18;5.90;;;2.70;;
70303;SDS011;57712;48.752;11.348;2023-06-04T14:05:45;5.20;;;2.60;;
70303;SDS011;57712;48.752;11.348;2023-06-04T14:08:12;5.60;;;2.80;;
70303;SDS011;57712;48.752;11.348;2023-06-04T14:10:42;5.50;;;2.73;;
70303;SDS011;57712;48.752;11.348;2023-06-04T14:13:09;7.00;;;3.13;;
70303;SDS011;57712;48.752;11.348;2023-06-04T14:15:35;5.85;;;2.58;;
70303;SDS011;57712;48.752;11.348;2023-06-04T14:18:03;7.78;;;2.85;;
70303;SDS011;57712;48.752;11.348;2023-06-04T14:20:31;7.05;;;2.72;;
70303;SDS011;57712;48.752;11.348;2023-06-04T14:22:58;7.03;;;2.33;;
70303;SDS011;57712;48.752;11.348;2023-06-04T14:25:24;7.60;;;2.50;;
70303;SDS011;57712;48.752;11.348;2023-06-04T14:27:51;6.22;;;2.95;;
70303;SDS011;57712;48.752;11.348;2023-06-04T14:30:18;4.90;;;2.78;;
70303;SDS011;57712;48.752;11.348;2023-06-04T14:32:44;5.63;;;2.60;;
70303;SDS011;57712;48.752;11.348;2023-06-04T14:35:11;6.83;;;2.60;;
70303;SDS011;57712;48.752;11.348;2023-06-04T14:37:38;5.72;;;2.40;;
70303;SDS011;57712;48.752;11.348;2023-06-04T14:40:05;5.40;;;2.72;;
70303;SDS011;57712;48.752;11.348;2023-06-04T14:42:32;5.85;;;2.80;;
70303;SDS011;57712;48.752;11.348;2023-06-04T14:44:59;5.45;;;2.97;;